Madison Heights, VA (24572)

8:35 PM EST on February 12, 2016 (GMT -0500)
Lakeview | | Change Station
CLOSE
Current Station
Personal Weather Station
Location: Madison Heights, VA
Elevation: 712 ft
Nearby Weather Stations
Active Advisory: Wind Chill Advisory

Elev 712 ft 37.43 °N, 79.11 °W | Updated 4 seconds ago

Overcast
Overcast
29.8 °F
Feels Like 25 °F
N
5.0
Wind Variable Wind from WSW
Gusts 8.0 mph

Today
High -- | Low -- °F
--% Chance of Precip.
Yesterday
High -- | Low -- °F
Precip. -- in
Pressure 30.02 in
Visibility 10.0 miles
Clouds Overcast 4100 ft
Windchill 25 °F
Dew Point 21 °F
Humidity 69%
Rainfall 0.00 in
Snow Depth Not available.
7:09 AM 5:52 PM
Waxing Crescent, 25% visible
METAR KLYH 130054Z 20004KT 10SM OVC041 M03/M08 A2998 RMK AO2 SLP164 T10281078
Pressure 30.02 in
Visibility 10.0 miles
Clouds Overcast 4100 ft
Windchill 25 °F
Dew Point 21 °F
Humidity 69%
Rainfall 0.00 in
Snow Depth Not available.
7:09 AM 5:52 PM
Waxing Crescent, 25% visible
METAR KLYH 130054Z 20004KT 10SM OVC041 M03/M08 A2998 RMK AO2 SLP164 T10281078

10-Day Weather Forecast

Almanac

Astronomy

Feb. 12, 2016 Rise Set
Actual Time
Civil Twilight
Nautical Twilight
Astronomical Twilight
Moon
Length of Visible Light
Length of Day
Tomorrow will be .
, % of the Moon is Illuminated

Today's Extremes

State Highs State Lows

Community

WunderPhotos

Upload Photos

1,892,459 photos uploaded!

WunderBlog® & News

Nearby

Air Quality

  Air Quality AQ Index Pollutant
Not available.

Snow Depth

Station Depth Elevation

Earthquake Activity

City Distance Mag. Time & Date
Minimum magnitude displayed is 2.5.

Coastal Water Temperatures

Place Temperature

Stations

Nearby Weather Stations

Station Location Temp. Windchill Dew Point Humidity Wind Precip. Elev Updated Type
                   

Watches & Warnings

Wind Chill Advisory
Issued: 2:39 PM EST Feb. 12, 2016 – National Weather Service

... Wind Chill Advisory remains in effect from 11 PM this evening
to 10 am EST Sunday...

* locations... areas of Virginia... West Virginia... and North
Carolina from the Blue Ridge westward.

* Hazard types... strong gusty winds... and very low wind chills.

* Wind chill readings... 5 to 15 below zero.

* Timing... tonight through Sunday morning.

* Impacts... very low wind chill values may lead to hypothermia
and frostbite.

* Winds... northwest 15 to 25 mph with gusts to 50 or 55 mph.

* Temperatures... teens to single digits.

Precautionary/preparedness actions...

A Wind Chill Advisory means that very cold air and strong winds
will combine to generate low wind chills. This will result in
frost bite and lead to hypothermia if precautions are not taken.
If you must venture outdoors... make sure you wear a hat and
gloves.